sensor_id;sensor_type;location;lat;lon;timestamp;P1;durP1;ratioP1;P2;durP2;ratioP2
69203;SDS011;56317;27.658;85.326;2022-07-23T00:01:29;6.70;;;3.40;;
69203;SDS011;56317;27.658;85.326;2022-07-23T00:03:57;6.35;;;3.42;;
69203;SDS011;56317;27.658;85.326;2022-07-23T00:06:24;6.22;;;3.80;;
69203;SDS011;56317;27.658;85.326;2022-07-23T00:08:52;6.07;;;3.95;;
69203;SDS011;56317;27.658;85.326;2022-07-23T00:11:19;6.90;;;4.30;;
69203;SDS011;56317;27.658;85.326;2022-07-23T00:13:47;6.78;;;3.70;;
69203;SDS011;56317;27.658;85.326;2022-07-23T00:16:15;9.00;;;5.07;;
69203;SDS011;56317;27.658;85.326;2022-07-23T00:18:42;6.72;;;3.53;;
69203;SDS011;56317;27.658;85.326;2022-07-23T00:21:09;7.85;;;4.10;;
69203;SDS011;56317;27.658;85.326;2022-07-23T00:23:36;7.55;;;3.72;;
69203;SDS011;56317;27.658;85.326;2022-07-23T00:26:03;7.82;;;4.35;;
69203;SDS011;56317;27.658;85.326;2022-07-23T00:28:33;6.97;;;4.20;;
69203;SDS011;56317;27.658;85.326;2022-07-23T00:31:00;8.77;;;4.88;;
69203;SDS011;56317;27.658;85.326;2022-07-23T00:33:28;8.85;;;4.22;;
69203;SDS011;56317;27.658;85.326;2022-07-23T00:35:55;7.50;;;4.18;;
69203;SDS011;56317;27.658;85.326;2022-07-23T00:38:22;8.68;;;3.92;;
69203;SDS011;56317;27.658;85.326;2022-07-23T00:40:49;9.23;;;4.45;;
69203;SDS011;56317;27.658;85.326;2022-07-23T00:43:16;8.02;;;4.93;;
69203;SDS011;56317;27.658;85.326;2022-07-23T00:45:45;8.05;;;4.72;;
69203;SDS011;56317;27.658;85.326;2022-07-23T00:48:12;8.75;;;3.97;;
69203;SDS011;56317;27.658;85.326;2022-07-23T00:50:40;7.50;;;3.90;;
69203;SDS011;56317;27.658;85.326;2022-07-23T00:53:08;10.07;;;5.22;;
69203;SDS011;56317;27.658;85.326;2022-07-23T00:55:36;7.65;;;4.20;;
69203;SDS011;56317;27.658;85.326;2022-07-23T00:58:03;6.72;;;3.92;;
69203;SDS011;56317;27.658;85.326;2022-07-23T01:00:31;8.88;;;4.47;;
69203;SDS011;56317;27.658;85.326;2022-07-23T01:02:59;7.65;;;4.65;;
69203;SDS011;56317;27.658;85.326;2022-07-23T01:05:26;7.00;;;4.20;;
69203;SDS011;56317;27.658;85.326;2022-07-23T01:07:53;7.47;;;4.40;;
69203;SDS011;56317;27.658;85.326;2022-07-23T01:10:21;7.20;;;4.15;;
69203;SDS011;56317;27.658;85.326;2022-07-23T01:12:57;7.93;;;4.70;;
69203;SDS011;56317;27.658;85.326;2022-07-23T01:15:33;7.57;;;4.50;;
69203;SDS011;56317;27.658;85.326;2022-07-23T01:18:02;7.30;;;5.00;;
69203;SDS011;56317;27.658;85.326;2022-07-23T01:20:30;8.90;;;4.70;;
69203;SDS011;56317;27.658;85.326;2022-07-23T01:22:58;9.50;;;5.00;;
69203;SDS011;56317;27.658;85.326;2022-07-23T01:25:25;11.32;;;5.93;;
69203;SDS011;56317;27.658;85.326;2022-07-23T01:27:52;8.73;;;4.60;;
69203;SDS011;56317;27.658;85.326;2022-07-23T01:30:20;8.40;;;5.07;;
69203;SDS011;56317;27.658;85.326;2022-07-23T01:32:47;9.18;;;5.00;;
69203;SDS011;56317;27.658;85.326;2022-07-23T01:35:14;10.95;;;5.68;;
69203;SDS011;56317;27.658;85.326;2022-07-23T01:37:41;7.82;;;4.82;;
69203;SDS011;56317;27.658;85.326;2022-07-23T01:40:09;6.88;;;3.80;;
69203;SDS011;56317;27.658;85.326;2022-07-23T01:42:36;9.90;;;4.13;;
69203;SDS011;56317;27.658;85.326;2022-07-23T01:45:04;8.30;;;3.92;;
69203;SDS011;56317;27.658;85.326;2022-07-23T01:47:31;8.60;;;5.07;;
69203;SDS011;56317;27.658;85.326;2022-07-23T01:49:58;12.52;;;5.15;;
69203;SDS011;56317;27.658;85.326;2022-07-23T01:52:26;7.30;;;4.65;;
69203;SDS011;56317;27.658;85.326;2022-07-23T01:54:53;8.20;;;5.32;;
69203;SDS011;56317;27.658;85.326;2022-07-23T01:57:20;11.27;;;6.45;;
69203;SDS011;56317;27.658;85.326;2022-07-23T01:59:47;7.45;;;5.35;;
69203;SDS011;56317;27.658;85.326;2022-07-23T02:02:14;8.25;;;4.50;;
69203;SDS011;56317;27.658;85.326;2022-07-23T02:04:41;8.50;;;5.10;;
69203;SDS011;56317;27.658;85.326;2022-07-23T02:07:08;8.38;;;5.75;;
69203;SDS011;56317;27.658;85.326;2022-07-23T02:09:35;8.50;;;5.68;;
69203;SDS011;56317;27.658;85.326;2022-07-23T02:12:03;10.82;;;5.78;;
69203;SDS011;56317;27.658;85.326;2022-07-23T02:14:30;8.98;;;5.68;;
69203;SDS011;56317;27.658;85.326;2022-07-23T02:16:57;7.72;;;5.18;;
69203;SDS011;56317;27.658;85.326;2022-07-23T02:19:24;9.35;;;6.13;;
69203;SDS011;56317;27.658;85.326;2022-07-23T02:21:52;10.13;;;6.32;;
69203;SDS011;56317;27.658;85.326;2022-07-23T02:24:20;11.45;;;6.45;;
69203;SDS011;56317;27.658;85.326;2022-07-23T02:26:47;12.73;;;6.13;;
69203;SDS011;56317;27.658;85.326;2022-07-23T02:29:14;9.38;;;5.93;;
69203;SDS011;56317;27.658;85.326;2022-07-23T02:31:41;9.23;;;6.03;;
69203;SDS011;56317;27.658;85.326;2022-07-23T02:34:09;8.45;;;5.65;;
69203;SDS011;56317;27.658;85.326;2022-07-23T02:36:37;8.45;;;5.50;;
69203;SDS011;56317;27.658;85.326;2022-07-23T02:39:05;11.10;;;7.32;;
69203;SDS011;56317;27.658;85.326;2022-07-23T02:41:32;13.10;;;7.38;;
69203;SDS011;56317;27.658;85.326;2022-07-23T02:43:59;11.48;;;8.63;;
69203;SDS011;56317;27.658;85.326;2022-07-23T02:46:26;12.77;;;7.40;;
69203;SDS011;56317;27.658;85.326;2022-07-23T02:48:54;11.85;;;7.40;;
69203;SDS011;56317;27.658;85.326;2022-07-23T02:51:21;10.48;;;7.28;;
69203;SDS011;56317;27.658;85.326;2022-07-23T02:53:48;7.13;;;5.50;;
69203;SDS011;56317;27.658;85.326;2022-07-23T02:56:15;10.75;;;5.53;;
69203;SDS011;56317;27.658;85.326;2022-07-23T02:58:42;12.43;;;5.00;;
69203;SDS011;56317;27.658;85.326;2022-07-23T03:01:09;9.43;;;6.70;;
69203;SDS011;56317;27.658;85.326;2022-07-23T03:03:36;9.95;;;6.57;;
69203;SDS011;56317;27.658;85.326;2022-07-23T03:06:03;10.70;;;6.40;;
69203;SDS011;56317;27.658;85.326;2022-07-23T03:08:31;8.77;;;5.88;;
69203;SDS011;56317;27.658;85.326;2022-07-23T03:10:58;9.48;;;6.30;;
69203;SDS011;56317;27.658;85.326;2022-07-23T03:13:26;14.93;;;6.45;;
69203;SDS011;56317;27.658;85.326;2022-07-23T03:15:53;10.95;;;7.10;;
69203;SDS011;56317;27.658;85.326;2022-07-23T03:18:20;11.95;;;6.70;;
69203;SDS011;56317;27.658;85.326;2022-07-23T03:20:47;12.70;;;8.57;;
69203;SDS011;56317;27.658;85.326;2022-07-23T03:23:15;11.13;;;7.15;;
69203;SDS011;56317;27.658;85.326;2022-07-23T03:25:43;11.75;;;5.55;;
69203;SDS011;56317;27.658;85.326;2022-07-23T03:28:12;7.72;;;5.43;;
69203;SDS011;56317;27.658;85.326;2022-07-23T03:30:41;10.20;;;6.07;;
69203;SDS011;56317;27.658;85.326;2022-07-23T03:33:15;9.48;;;6.13;;
69203;SDS011;56317;27.658;85.326;2022-07-23T03:35:44;11.57;;;7.28;;
69203;SDS011;56317;27.658;85.326;2022-07-23T03:38:12;10.95;;;7.65;;
69203;SDS011;56317;27.658;85.326;2022-07-23T03:40:39;11.98;;;7.18;;
69203;SDS011;56317;27.658;85.326;2022-07-23T03:43:07;9.82;;;6.38;;
69203;SDS011;56317;27.658;85.326;2022-07-23T03:45:34;12.65;;;7.43;;
69203;SDS011;56317;27.658;85.326;2022-07-23T03:48:01;12.65;;;7.85;;
69203;SDS011;56317;27.658;85.326;2022-07-23T03:50:28;13.02;;;8.13;;
69203;SDS011;56317;27.658;85.326;2022-07-23T03:52:55;11.27;;;8.13;;
69203;SDS011;56317;27.658;85.326;2022-07-23T03:55:22;10.45;;;7.35;;
69203;SDS011;56317;27.658;85.326;2022-07-23T03:57:50;12.38;;;7.65;;
69203;SDS011;56317;27.658;85.326;2022-07-23T04:00:17;9.20;;;6.80;;
69203;SDS011;56317;27.658;85.326;2022-07-23T04:02:44;12.15;;;6.97;;
69203;SDS011;56317;27.658;85.326;2022-07-23T04:05:11;12.50;;;7.63;;
69203;SDS011;56317;27.658;85.326;2022-07-23T04:07:38;11.05;;;6.45;;
69203;SDS011;56317;27.658;85.326;2022-07-23T04:10:06;7.03;;;4.70;;
69203;SDS011;56317;27.658;85.326;2022-07-23T04:12:33;9.05;;;5.53;;
69203;SDS011;56317;27.658;85.326;2022-07-23T04:15:01;9.30;;;5.75;;
69203;SDS011;56317;27.658;85.326;2022-07-23T04:17:28;8.90;;;5.57;;
69203;SDS011;56317;27.658;85.326;2022-07-23T04:19:55;10.63;;;6.00;;
69203;SDS011;56317;27.658;85.326;2022-07-23T04:22:22;9.45;;;5.15;;
69203;SDS011;56317;27.658;85.326;2022-07-23T04:24:50;10.18;;;5.30;;
69203;SDS011;56317;27.658;85.326;2022-07-23T04:27:17;10.20;;;5.45;;
69203;SDS011;56317;27.658;85.326;2022-07-23T04:29:44;8.18;;;5.20;;
69203;SDS011;56317;27.658;85.326;2022-07-23T04:32:11;9.98;;;5.45;;
69203;SDS011;56317;27.658;85.326;2022-07-23T04:34:39;8.27;;;5.25;;
69203;SDS011;56317;27.658;85.326;2022-07-23T04:37:06;9.93;;;5.10;;
69203;SDS011;56317;27.658;85.326;2022-07-23T04:39:33;8.98;;;4.60;;
69203;SDS011;56317;27.658;85.326;2022-07-23T04:42:00;9.55;;;5.45;;
69203;SDS011;56317;27.658;85.326;2022-07-23T04:44:27;10.32;;;5.10;;
69203;SDS011;56317;27.658;85.326;2022-07-23T04:46:54;8.45;;;4.65;;
69203;SDS011;56317;27.658;85.326;2022-07-23T04:49:22;5.70;;;3.95;;
69203;SDS011;56317;27.658;85.326;2022-07-23T04:51:49;9.57;;;4.93;;
69203;SDS011;56317;27.658;85.326;2022-07-23T04:54:16;6.45;;;4.10;;
69203;SDS011;56317;27.658;85.326;2022-07-23T04:56:43;6.22;;;3.63;;
69203;SDS011;56317;27.658;85.326;2022-07-23T04:59:10;7.78;;;3.78;;
69203;SDS011;56317;27.658;85.326;2022-07-23T05:01:37;5.13;;;3.40;;
69203;SDS011;56317;27.658;85.326;2022-07-23T05:04:04;7.03;;;3.67;;
69203;SDS011;56317;27.658;85.326;2022-07-23T05:06:34;6.05;;;3.50;;
69203;SDS011;56317;27.658;85.326;2022-07-23T05:09:01;7.82;;;3.70;;
69203;SDS011;56317;27.658;85.326;2022-07-23T05:11:28;11.93;;;4.03;;
69203;SDS011;56317;27.658;85.326;2022-07-23T05:13:55;4.22;;;2.92;;
69203;SDS011;56317;27.658;85.326;2022-07-23T05:16:23;4.75;;;2.95;;
69203;SDS011;56317;27.658;85.326;2022-07-23T05:18:50;7.07;;;3.17;;
69203;SDS011;56317;27.658;85.326;2022-07-23T05:21:19;8.10;;;5.18;;
69203;SDS011;56317;27.658;85.326;2022-07-23T05:23:46;10.70;;;5.32;;
69203;SDS011;56317;27.658;85.326;2022-07-23T05:26:13;10.27;;;5.38;;
69203;SDS011;56317;27.658;85.326;2022-07-23T05:28:41;8.23;;;4.53;;
69203;SDS011;56317;27.658;85.326;2022-07-23T05:31:08;6.97;;;3.95;;
69203;SDS011;56317;27.658;85.326;2022-07-23T05:33:35;6.88;;;3.83;;
69203;SDS011;56317;27.658;85.326;2022-07-23T05:36:02;7.20;;;3.97;;
69203;SDS011;56317;27.658;85.326;2022-07-23T05:38:31;6.13;;;3.92;;
69203;SDS011;56317;27.658;85.326;2022-07-23T05:40:59;7.88;;;4.20;;
69203;SDS011;56317;27.658;85.326;2022-07-23T05:43:26;7.80;;;4.38;;
69203;SDS011;56317;27.658;85.326;2022-07-23T05:45:54;12.13;;;7.20;;
69203;SDS011;56317;27.658;85.326;2022-07-23T05:48:21;16.92;;;7.63;;
69203;SDS011;56317;27.658;85.326;2022-07-23T05:50:48;10.68;;;6.55;;
69203;SDS011;56317;27.658;85.326;2022-07-23T05:53:16;10.00;;;6.32;;
69203;SDS011;56317;27.658;85.326;2022-07-23T05:55:44;8.77;;;5.10;;
69203;SDS011;56317;27.658;85.326;2022-07-23T05:58:11;7.40;;;5.32;;
69203;SDS011;56317;27.658;85.326;2022-07-23T06:00:38;7.53;;;4.70;;
69203;SDS011;56317;27.658;85.326;2022-07-23T06:03:05;7.50;;;5.20;;
69203;SDS011;56317;27.658;85.326;2022-07-23T06:05:32;7.93;;;5.05;;
69203;SDS011;56317;27.658;85.326;2022-07-23T06:07:59;7.38;;;4.85;;
69203;SDS011;56317;27.658;85.326;2022-07-23T06:10:27;5.72;;;4.03;;
69203;SDS011;56317;27.658;85.326;2022-07-23T06:12:54;6.85;;;4.30;;
69203;SDS011;56317;27.658;85.326;2022-07-23T06:15:21;7.82;;;4.05;;
69203;SDS011;56317;27.658;85.326;2022-07-23T06:17:48;7.85;;;4.07;;
69203;SDS011;56317;27.658;85.326;2022-07-23T06:20:15;9.73;;;3.90;;
69203;SDS011;56317;27.658;85.326;2022-07-23T06:22:42;6.20;;;4.07;;
69203;SDS011;56317;27.658;85.326;2022-07-23T06:25:10;6.78;;;3.95;;
69203;SDS011;56317;27.658;85.326;2022-07-23T06:27:37;7.47;;;3.97;;
69203;SDS011;56317;27.658;85.326;2022-07-23T06:30:04;6.60;;;4.13;;
69203;SDS011;56317;27.658;85.326;2022-07-23T06:32:33;5.50;;;3.63;;
69203;SDS011;56317;27.658;85.326;2022-07-23T06:35:00;8.00;;;3.60;;
69203;SDS011;56317;27.658;85.326;2022-07-23T06:37:28;9.18;;;3.50;;
69203;SDS011;56317;27.658;85.326;2022-07-23T06:39:55;6.65;;;3.30;;
69203;SDS011;56317;27.658;85.326;2022-07-23T06:42:22;4.28;;;3.08;;
69203;SDS011;56317;27.658;85.326;2022-07-23T06:44:49;4.60;;;2.85;;
69203;SDS011;56317;27.658;85.326;2022-07-23T06:47:16;4.90;;;3.20;;
69203;SDS011;56317;27.658;85.326;2022-07-23T06:49:43;3.95;;;2.55;;
69203;SDS011;56317;27.658;85.326;2022-07-23T06:52:11;3.80;;;2.42;;
69203;SDS011;56317;27.658;85.326;2022-07-23T06:54:38;4.47;;;2.28;;
69203;SDS011;56317;27.658;85.326;2022-07-23T06:57:05;7.78;;;2.33;;
69203;SDS011;56317;27.658;85.326;2022-07-23T06:59:32;4.15;;;2.83;;
69203;SDS011;56317;27.658;85.326;2022-07-23T07:02:02;4.38;;;2.80;;
69203;SDS011;56317;27.658;85.326;2022-07-23T07:04:29;4.35;;;2.70;;
69203;SDS011;56317;27.658;85.326;2022-07-23T07:06:57;6.35;;;2.38;;
69203;SDS011;56317;27.658;85.326;2022-07-23T07:09:30;4.25;;;2.22;;
69203;SDS011;56317;27.658;85.326;2022-07-23T07:11:57;4.07;;;2.15;;
69203;SDS011;56317;27.658;85.326;2022-07-23T07:14:25;4.47;;;2.00;;
69203;SDS011;56317;27.658;85.326;2022-07-23T07:16:52;2.63;;;1.48;;
69203;SDS011;56317;27.658;85.326;2022-07-23T07:19:19;1.80;;;1.30;;
69203;SDS011;56317;27.658;85.326;2022-07-23T07:21:46;3.80;;;1.60;;
69203;SDS011;56317;27.658;85.326;2022-07-23T07:24:13;5.85;;;2.83;;
69203;SDS011;56317;27.658;85.326;2022-07-23T07:26:40;4.25;;;1.55;;
69203;SDS011;56317;27.658;85.326;2022-07-23T07:29:11;2.55;;;1.48;;
69203;SDS011;56317;27.658;85.326;2022-07-23T07:31:54;2.75;;;1.52;;
69203;SDS011;56317;27.658;85.326;2022-07-23T07:34:33;3.67;;;1.23;;
69203;SDS011;56317;27.658;85.326;2022-07-23T07:37:01;3.45;;;1.10;;
69203;SDS011;56317;27.658;85.326;2022-07-23T07:39:31;3.50;;;1.52;;
69203;SDS011;56317;27.658;85.326;2022-07-23T07:42:01;5.13;;;2.47;;
69203;SDS011;56317;27.658;85.326;2022-07-23T07:44:29;5.18;;;2.50;;
69203;SDS011;56317;27.658;85.326;2022-07-23T07:46:56;4.90;;;2.20;;
69203;SDS011;56317;27.658;85.326;2022-07-23T07:49:23;5.93;;;2.20;;
69203;SDS011;56317;27.658;85.326;2022-07-23T07:51:50;4.88;;;2.25;;
69203;SDS011;56317;27.658;85.326;2022-07-23T07:54:18;4.38;;;1.73;;
69203;SDS011;56317;27.658;85.326;2022-07-23T07:56:45;6.28;;;2.15;;
69203;SDS011;56317;27.658;85.326;2022-07-23T07:59:16;4.53;;;2.00;;
69203;SDS011;56317;27.658;85.326;2022-07-23T08:01:43;5.53;;;1.98;;
69203;SDS011;56317;27.658;85.326;2022-07-23T08:04:10;8.05;;;2.53;;
69203;SDS011;56317;27.658;85.326;2022-07-23T08:06:37;5.72;;;2.00;;
69203;SDS011;56317;27.658;85.326;2022-07-23T08:09:04;3.75;;;1.80;;
69203;SDS011;56317;27.658;85.326;2022-07-23T08:11:32;3.30;;;1.52;;
69203;SDS011;56317;27.658;85.326;2022-07-23T08:13:59;4.85;;;2.45;;
69203;SDS011;56317;27.658;85.326;2022-07-23T08:16:26;5.00;;;2.05;;
69203;SDS011;56317;27.658;85.326;2022-07-23T08:18:53;4.53;;;1.63;;
69203;SDS011;56317;27.658;85.326;2022-07-23T08:21:20;5.13;;;1.67;;
69203;SDS011;56317;27.658;85.326;2022-07-23T08:23:47;8.30;;;2.40;;
69203;SDS011;56317;27.658;85.326;2022-07-23T08:26:15;4.18;;;2.20;;
69203;SDS011;56317;27.658;85.326;2022-07-23T08:28:42;5.57;;;2.70;;
69203;SDS011;56317;27.658;85.326;2022-07-23T08:31:09;5.45;;;2.42;;
69203;SDS011;56317;27.658;85.326;2022-07-23T08:33:37;7.65;;;3.28;;
69203;SDS011;56317;27.658;85.326;2022-07-23T08:36:05;7.50;;;3.00;;
69203;SDS011;56317;27.658;85.326;2022-07-23T08:38:34;7.40;;;2.72;;
69203;SDS011;56317;27.658;85.326;2022-07-23T08:41:01;5.82;;;2.67;;
69203;SDS011;56317;27.658;85.326;2022-07-23T08:43:31;4.07;;;2.35;;
69203;SDS011;56317;27.658;85.326;2022-07-23T08:46:00;3.10;;;1.73;;
69203;SDS011;56317;27.658;85.326;2022-07-23T08:48:29;2.10;;;1.25;;
69203;SDS011;56317;27.658;85.326;2022-07-23T08:51:04;3.33;;;2.10;;
69203;SDS011;56317;27.658;85.326;2022-07-23T08:53:33;3.83;;;1.67;;
69203;SDS011;56317;27.658;85.326;2022-07-23T08:56:04;5.97;;;2.70;;
69203;SDS011;56317;27.658;85.326;2022-07-23T08:58:32;4.97;;;3.17;;
69203;SDS011;56317;27.658;85.326;2022-07-23T09:01:00;5.00;;;2.55;;
69203;SDS011;56317;27.658;85.326;2022-07-23T09:03:31;4.90;;;2.13;;
69203;SDS011;56317;27.658;85.326;2022-07-23T09:06:01;6.43;;;2.70;;
69203;SDS011;56317;27.658;85.326;2022-07-23T09:08:38;6.10;;;2.40;;
69203;SDS011;56317;27.658;85.326;2022-07-23T09:11:08;4.75;;;2.13;;
69203;SDS011;56317;27.658;85.326;2022-07-23T09:13:40;5.75;;;2.80;;
69203;SDS011;56317;27.658;85.326;2022-07-23T09:16:19;7.90;;;2.70;;
69203;SDS011;56317;27.658;85.326;2022-07-23T09:18:50;9.15;;;2.75;;
69203;SDS011;56317;27.658;85.326;2022-07-23T09:21:25;9.10;;;2.55;;
69203;SDS011;56317;27.658;85.326;2022-07-23T09:24:03;6.20;;;2.22;;
69203;SDS011;56317;27.658;85.326;2022-07-23T09:26:42;11.25;;;2.10;;
69203;SDS011;56317;27.658;85.326;2022-07-23T09:29:15;10.20;;;2.80;;
69203;SDS011;56317;27.658;85.326;2022-07-23T09:31:57;9.75;;;3.47;;
69203;SDS011;56317;27.658;85.326;2022-07-23T09:34:27;9.18;;;3.42;;
69203;SDS011;56317;27.658;85.326;2022-07-23T09:37:14;8.20;;;4.03;;
69203;SDS011;56317;27.658;85.326;2022-07-23T09:39:43;10.93;;;4.75;;
69203;SDS011;56317;27.658;85.326;2022-07-23T09:42:18;21.67;;;5.20;;
69203;SDS011;56317;27.658;85.326;2022-07-23T09:44:49;10.02;;;4.88;;
69203;SDS011;56317;27.658;85.326;2022-07-23T09:47:18;14.90;;;4.82;;
69203;SDS011;56317;27.658;85.326;2022-07-23T09:50:05;19.15;;;4.18;;
69203;SDS011;56317;27.658;85.326;2022-07-23T09:52:37;6.28;;;3.35;;
69203;SDS011;56317;27.658;85.326;2022-07-23T09:55:10;10.45;;;3.65;;
69203;SDS011;56317;27.658;85.326;2022-07-23T09:57:38;11.18;;;3.78;;
69203;SDS011;56317;27.658;85.326;2022-07-23T10:00:08;10.03;;;4.33;;
69203;SDS011;56317;27.658;85.326;2022-07-23T10:02:36;11.82;;;3.88;;
69203;SDS011;56317;27.658;85.326;2022-07-23T10:05:05;11.75;;;4.10;;
69203;SDS011;56317;27.658;85.326;2022-07-23T10:07:34;13.70;;;3.70;;
69203;SDS011;56317;27.658;85.326;2022-07-23T10:10:06;17.42;;;4.10;;
69203;SDS011;56317;27.658;85.326;2022-07-23T10:12:33;13.07;;;4.30;;
69203;SDS011;56317;27.658;85.326;2022-07-23T10:15:10;11.35;;;4.10;;
69203;SDS011;56317;27.658;85.326;2022-07-23T10:17:37;17.58;;;3.63;;
69203;SDS011;56317;27.658;85.326;2022-07-23T10:20:05;10.02;;;3.65;;
69203;SDS011;56317;27.658;85.326;2022-07-23T10:22:33;14.43;;;3.70;;
69203;SDS011;56317;27.658;85.326;2022-07-23T10:28:10;7.35;;;2.83;;
69203;SDS011;56317;27.658;85.326;2022-07-23T10:30:49;9.07;;;4.28;;
69203;SDS011;56317;27.658;85.326;2022-07-23T10:35:54;8.95;;;3.25;;
69203;SDS011;56317;27.658;85.326;2022-07-23T10:38:31;11.98;;;4.82;;
69203;SDS011;56317;27.658;85.326;2022-07-23T10:41:06;8.27;;;3.47;;
69203;SDS011;56317;27.658;85.326;2022-07-23T10:43:36;7.50;;;3.72;;
69203;SDS011;56317;27.658;85.326;2022-07-23T10:46:22;15.88;;;5.40;;
69203;SDS011;56317;27.658;85.326;2022-07-23T10:49:27;24.60;;;7.28;;
69203;SDS011;56317;27.658;85.326;2022-07-23T10:52:16;13.95;;;4.65;;
69203;SDS011;56317;27.658;85.326;2022-07-23T10:54:45;9.57;;;4.43;;
69203;SDS011;56317;27.658;85.326;2022-07-23T10:57:13;9.70;;;4.50;;
69203;SDS011;56317;27.658;85.326;2022-07-23T11:05:04;12.10;;;4.03;;
69203;SDS011;56317;27.658;85.326;2022-07-23T11:07:32;9.20;;;4.05;;
69203;SDS011;56317;27.658;85.326;2022-07-23T11:15:09;14.02;;;5.10;;
69203;SDS011;56317;27.658;85.326;2022-07-23T11:20:15;9.75;;;4.00;;
69203;SDS011;56317;27.658;85.326;2022-07-23T11:25:30;14.20;;;6.40;;
69203;SDS011;56317;27.658;85.326;2022-07-23T11:30:46;23.92;;;8.13;;
69203;SDS011;56317;27.658;85.326;2022-07-23T11:35:45;8.93;;;4.22;;
69203;SDS011;56317;27.658;85.326;2022-07-23T11:38:21;12.48;;;5.13;;
69203;SDS011;56317;27.658;85.326;2022-07-23T11:43:18;12.13;;;5.63;;
69203;SDS011;56317;27.658;85.326;2022-07-23T11:45:46;8.40;;;4.63;;
69203;SDS011;56317;27.658;85.326;2022-07-23T11:50:55;8.63;;;3.50;;
69203;SDS011;56317;27.658;85.326;2022-07-23T11:56:02;8.68;;;2.80;;
69203;SDS011;56317;27.658;85.326;2022-07-23T11:58:30;5.55;;;3.22;;
69203;SDS011;56317;27.658;85.326;2022-07-23T12:00:57;8.35;;;3.17;;
69203;SDS011;56317;27.658;85.326;2022-07-23T12:03:24;10.45;;;3.35;;
69203;SDS011;56317;27.658;85.326;2022-07-23T12:05:55;6.85;;;2.83;;
69203;SDS011;56317;27.658;85.326;2022-07-23T12:08:23;12.63;;;3.10;;
69203;SDS011;56317;27.658;85.326;2022-07-23T12:10:51;11.07;;;3.60;;
69203;SDS011;56317;27.658;85.326;2022-07-23T12:13:19;13.98;;;3.63;;
69203;SDS011;56317;27.658;85.326;2022-07-23T12:15:52;8.38;;;3.75;;
69203;SDS011;56317;27.658;85.326;2022-07-23T12:18:23;10.38;;;4.40;;
69203;SDS011;56317;27.658;85.326;2022-07-23T12:20:53;9.85;;;5.00;;
69203;SDS011;56317;27.658;85.326;2022-07-23T12:23:24;11.30;;;4.40;;
69203;SDS011;56317;27.658;85.326;2022-07-23T12:25:52;7.68;;;3.40;;
69203;SDS011;56317;27.658;85.326;2022-07-23T12:28:21;9.00;;;4.03;;
69203;SDS011;56317;27.658;85.326;2022-07-23T12:30:56;7.45;;;3.65;;
69203;SDS011;56317;27.658;85.326;2022-07-23T12:33:25;7.38;;;4.25;;
69203;SDS011;56317;27.658;85.326;2022-07-23T12:35:55;15.90;;;5.23;;
69203;SDS011;56317;27.658;85.326;2022-07-23T12:38:25;15.55;;;5.10;;
69203;SDS011;56317;27.658;85.326;2022-07-23T12:40:58;7.40;;;3.75;;
69203;SDS011;56317;27.658;85.326;2022-07-23T12:43:30;6.43;;;3.28;;
69203;SDS011;56317;27.658;85.326;2022-07-23T12:46:03;10.43;;;4.75;;
69203;SDS011;56317;27.658;85.326;2022-07-23T12:48:36;6.13;;;3.00;;
69203;SDS011;56317;27.658;85.326;2022-07-23T12:53:44;6.63;;;2.83;;
69203;SDS011;56317;27.658;85.326;2022-07-23T12:56:37;8.85;;;3.88;;
69203;SDS011;56317;27.658;85.326;2022-07-23T12:59:07;12.48;;;4.18;;
69203;SDS011;56317;27.658;85.326;2022-07-23T13:01:38;8.80;;;3.20;;
69203;SDS011;56317;27.658;85.326;2022-07-23T13:04:11;9.55;;;4.75;;
69203;SDS011;56317;27.658;85.326;2022-07-23T13:06:43;10.85;;;3.38;;
69203;SDS011;56317;27.658;85.326;2022-07-23T13:09:14;9.95;;;3.33;;
69203;SDS011;56317;27.658;85.326;2022-07-23T13:11:46;10.73;;;3.40;;
69203;SDS011;56317;27.658;85.326;2022-07-23T13:14:14;8.93;;;4.78;;
69203;SDS011;56317;27.658;85.326;2022-07-23T13:16:42;12.30;;;4.55;;
69203;SDS011;56317;27.658;85.326;2022-07-23T13:19:14;18.15;;;6.75;;
69203;SDS011;56317;27.658;85.326;2022-07-23T13:21:42;10.07;;;5.05;;
69203;SDS011;56317;27.658;85.326;2022-07-23T13:24:09;8.35;;;4.32;;
69203;SDS011;56317;27.658;85.326;2022-07-23T13:26:49;8.63;;;4.35;;
69203;SDS011;56317;27.658;85.326;2022-07-23T13:29:20;10.50;;;5.95;;
69203;SDS011;56317;27.658;85.326;2022-07-23T13:31:47;10.18;;;6.03;;
69203;SDS011;56317;27.658;85.326;2022-07-23T13:34:14;10.30;;;4.97;;
69203;SDS011;56317;27.658;85.326;2022-07-23T13:36:41;11.48;;;5.40;;
69203;SDS011;56317;27.658;85.326;2022-07-23T13:39:09;12.10;;;6.53;;
69203;SDS011;56317;27.658;85.326;2022-07-23T13:41:37;12.43;;;5.63;;
69203;SDS011;56317;27.658;85.326;2022-07-23T13:44:04;21.02;;;13.25;;
69203;SDS011;56317;27.658;85.326;2022-07-23T13:46:32;11.60;;;6.35;;
69203;SDS011;56317;27.658;85.326;2022-07-23T13:49:00;16.48;;;6.75;;
69203;SDS011;56317;27.658;85.326;2022-07-23T13:51:28;16.38;;;8.10;;
69203;SDS011;56317;27.658;85.326;2022-07-23T13:53:55;16.38;;;8.45;;
69203;SDS011;56317;27.658;85.326;2022-07-23T13:56:24;15.32;;;8.45;;
69203;SDS011;56317;27.658;85.326;2022-07-23T13:58:51;19.45;;;8.48;;
69203;SDS011;56317;27.658;85.326;2022-07-23T14:01:19;15.50;;;8.35;;
69203;SDS011;56317;27.658;85.326;2022-07-23T14:03:46;17.02;;;8.18;;
69203;SDS011;56317;27.658;85.326;2022-07-23T14:06:13;18.13;;;8.90;;
69203;SDS011;56317;27.658;85.326;2022-07-23T14:08:40;12.70;;;5.78;;
69203;SDS011;56317;27.658;85.326;2022-07-23T14:11:07;10.93;;;5.50;;
69203;SDS011;56317;27.658;85.326;2022-07-23T14:13:34;9.88;;;5.30;;
69203;SDS011;56317;27.658;85.326;2022-07-23T14:16:01;11.15;;;4.53;;
69203;SDS011;56317;27.658;85.326;2022-07-23T14:18:29;8.63;;;3.80;;
69203;SDS011;56317;27.658;85.326;2022-07-23T14:20:56;6.55;;;3.55;;
69203;SDS011;56317;27.658;85.326;2022-07-23T14:23:23;7.95;;;3.83;;
69203;SDS011;56317;27.658;85.326;2022-07-23T14:25:50;7.72;;;3.55;;
69203;SDS011;56317;27.658;85.326;2022-07-23T14:28:17;9.55;;;4.70;;
69203;SDS011;56317;27.658;85.326;2022-07-23T14:30:45;9.63;;;4.50;;
69203;SDS011;56317;27.658;85.326;2022-07-23T14:33:12;10.52;;;4.57;;
69203;SDS011;56317;27.658;85.326;2022-07-23T14:35:40;7.40;;;3.28;;
69203;SDS011;56317;27.658;85.326;2022-07-23T14:38:08;6.38;;;3.15;;
69203;SDS011;56317;27.658;85.326;2022-07-23T14:40:35;5.15;;;3.00;;
69203;SDS011;56317;27.658;85.326;2022-07-23T14:43:02;8.43;;;4.70;;
69203;SDS011;56317;27.658;85.326;2022-07-23T14:45:29;6.55;;;3.97;;
69203;SDS011;56317;27.658;85.326;2022-07-23T14:47:56;7.15;;;3.38;;
69203;SDS011;56317;27.658;85.326;2022-07-23T14:50:24;5.68;;;2.90;;
69203;SDS011;56317;27.658;85.326;2022-07-23T14:52:51;6.22;;;2.90;;
69203;SDS011;56317;27.658;85.326;2022-07-23T14:55:18;9.05;;;2.95;;
69203;SDS011;56317;27.658;85.326;2022-07-23T14:57:46;8.35;;;3.65;;
69203;SDS011;56317;27.658;85.326;2022-07-23T15:00:13;7.45;;;2.92;;
69203;SDS011;56317;27.658;85.326;2022-07-23T15:02:40;6.35;;;2.55;;
69203;SDS011;56317;27.658;85.326;2022-07-23T15:05:08;5.85;;;2.97;;
69203;SDS011;56317;27.658;85.326;2022-07-23T15:07:35;5.65;;;3.05;;
69203;SDS011;56317;27.658;85.326;2022-07-23T15:10:03;7.70;;;3.08;;
69203;SDS011;56317;27.658;85.326;2022-07-23T15:12:30;7.82;;;3.28;;
69203;SDS011;56317;27.658;85.326;2022-07-23T15:14:58;10.32;;;3.83;;
69203;SDS011;56317;27.658;85.326;2022-07-23T15:17:25;7.80;;;3.70;;